Columbiaville, Michigan
Current Conditions -  °F | °C
As of 3:14 AM on Thursday 18 Dec 2014 (Local Time) from KD95 Reporting Station
Haze Haze  
Wind Chill: 21°   Ceiling: 800
Heat Index: 28°   Visibility: 4mi
Dew Point: 27°   Wind: 7mph
Humidity: 94%   Direction: 290°WNW
Pressure: 30.16"   Gusts: 16mph
Location:  43.16°N, 83.41°W
Report Text: KD95 180814Z AUTO 29006G14KT 4SM BR OVC008 M02/M03 A3016 RMK AO2 T10211030
Loading
Personal Weather Stations






























Interactive Weather Map New forecast layout! Learn more

10-Day Weather Forecast

Advertisements
Track Severe Weather on mobile